This is the latest recevied weather packets stored in our database for station/object N4DRV. If no packets are shown the sender has not sent any weather packets the latest 10 day(s).
| Time | Temp. | Humidity | Pressure | Rain* | Wind** | Luminosity | Snow |
|---|---|---|---|---|---|---|---|
| 1777743340 | 18.33° C | 60% | 1014.1 hPa | 0 mm | - | - | - |
| 1777735542 | 15.56° C | 69% | 1014.8 hPa | 0 mm | - | - | - |
| 1777733716 | 15° C | 71% | 1014.6 hPa | 0 mm | - | - | - |
| 1777730750 | 13.33° C | 74% | 1014.3 hPa | 0 mm | - | - | - |
| 1777726516 | 12.78° C | 72% | 1013.9 hPa | 0 mm | - | - | - |
| 1777725317 | 12.22° C | 72% | 1013.3 hPa | 0 mm | - | - | - |
| 1777724134 | 12.78° C | 73% | 1013.6 hPa | 0 mm | - | - | - |
| 1777719946 | 12.78° C | 72% | 1014.1 hPa | 0 mm | - | - | - |
| 1777716920 | 12.78° C | 75% | 1012.9 hPa | 0 mm | - | - | - |
| 1777710924 | 13.89° C | 76% | 1012.6 hPa | 0 mm | - | - | - |
| 1777709140 | 13.89° C | 77% | 1012.8 hPa | 0 mm | - | - | - |
| 1777708517 | 13.89° C | 78% | 1013.1 hPa | 0 mm | - | - | - |
| 1777706131 | 13.89° C | 82% | 1013.2 hPa | 0 mm | - | - | - |
| 1777701316 | 14.44° C | 86% | 1014.1 hPa | 0 mm | - | - | - |
| 1777699515 | 14.44° C | 82% | 1013.9 hPa | 0 mm | - | - | - |
| 1777692919 | 15.56° C | 77% | 1014.8 hPa | 0 mm | - | - | - |
| 1777692321 | 15.56° C | 77% | 1014.8 hPa | 0 mm | - | - | - |
| 1777689914 | 15.56° C | 78% | 1014.9 hPa | 0 mm | - | - | - |
| 1777687553 | 15.56° C | 81% | 1014.9 hPa | 0 mm | - | - | - |
| 1777686926 | 15.56° C | 81% | 1014.8 hPa | 0 mm | - | - | - |
| 1777686327 | 15.56° C | 81% | 1014.8 hPa | 0 mm | - | - | - |
| 1777684513 | 15.56° C | 81% | 1014.4 hPa | 0 mm | - | - | - |
| 1777681530 | 16.67° C | 75% | 1013.8 hPa | 0 mm | - | - | - |
| 1777680928 | 16.67° C | 73% | 1014 hPa | 0 mm | - | - | - |
| 1777678523 | 17.22° C | 72% | 1013.7 hPa | 0 mm | - | - | - |
* Rain latest hour (hover to see other rain measurements)
** Current wind speed in m/s (hover to see current wind gust speed)